POZ weather

Poznań-Ławica Airport
Poznań, Greater Poland, Poland

Public forecast

Using degrees Celsius for public forecast. Weather courtesy of forecast.io.

Current aviation weather report (METAR) for Poznań-Ławica Airport

Retrieved 2019/10/20 08:30 UTC (36 seconds ago):

EPPO 200830Z 15006KT CAVOK 16/11 Q1013

Aviation forecast (TAF) for Poznań-Ławica Airport

Retrieved 2019/10/20 06:33 UTC (2 hours ago):

TAF EPPO 200530Z 2006/2106 14007KT 3000 BR NSC BECMG 2006/2008 CAVOK BECMG 2022/2101 4000 BR TEMPO 2101/2106 1200 BR